createdAt,value
2022-11-16T00:02:23.410Z,2.13
2022-11-16T00:04:50.966Z,2.10
2022-11-16T00:07:18.646Z,2.15
2022-11-16T00:09:46.262Z,2.02
2022-11-16T00:12:13.888Z,1.81
2022-11-16T00:14:41.421Z,1.53
2022-11-16T00:17:08.794Z,1.67
2022-11-16T00:19:36.415Z,1.88
2022-11-16T00:22:03.930Z,2.11
2022-11-16T00:24:31.450Z,2.20
2022-11-16T00:26:58.990Z,2.29
2022-11-16T00:29:27.401Z,2.31
2022-11-16T00:31:54.850Z,2.27
2022-11-16T00:34:23.505Z,2.30
2022-11-16T00:36:51.153Z,2.31
2022-11-16T00:39:19.902Z,2.30
2022-11-16T00:41:48.376Z,2.34
2022-11-16T00:44:16.213Z,2.27
2022-11-16T00:46:43.872Z,2.32
2022-11-16T00:49:11.604Z,2.33
2022-11-16T00:51:39.242Z,2.29
2022-11-16T00:54:09.230Z,2.29
2022-11-16T00:56:38.156Z,2.31
2022-11-16T00:59:07.066Z,2.26
2022-11-16T01:01:34.934Z,2.22
2022-11-16T01:04:03.475Z,2.18
2022-11-16T01:06:31.057Z,2.19
2022-11-16T01:09:01.091Z,2.17
2022-11-16T01:11:46.990Z,2.02
2022-11-16T01:14:14.972Z,2.09
2022-11-16T01:16:43.927Z,2.11
2022-11-16T01:19:11.525Z,2.06
2022-11-16T01:21:38.868Z,1.95
2022-11-16T01:24:06.783Z,1.72
2022-11-16T01:26:34.261Z,1.69
2022-11-16T01:29:01.774Z,1.74
2022-11-16T01:31:33.456Z,1.75
2022-11-16T01:34:03.491Z,1.63
2022-11-16T01:36:30.972Z,1.61
2022-11-16T01:39:10.357Z,1.56
2022-11-16T01:41:47.156Z,1.46
2022-11-16T01:44:15.684Z,1.64
2022-11-16T01:46:55.132Z,1.65
2022-11-16T01:49:25.837Z,1.72
2022-11-16T01:51:59.885Z,1.69
2022-11-16T01:54:31.337Z,1.43
2022-11-16T01:57:07.546Z,1.48
2022-11-16T01:59:50.303Z,1.48
2022-11-16T02:02:26.486Z,1.48
2022-11-16T02:04:55.870Z,1.59
2022-11-16T02:08:37.785Z,1.57
2022-11-16T02:11:23.050Z,1.42
2022-11-16T02:14:16.689Z,1.42
2022-11-16T02:16:56.853Z,1.45
2022-11-16T02:20:01.128Z,1.44
2022-11-16T02:22:54.096Z,1.34
2022-11-16T02:25:45.765Z,1.51
2022-11-16T02:29:10.094Z,1.40
2022-11-16T02:31:42.692Z,1.40
2022-11-16T02:34:12.810Z,1.45
2022-11-16T02:36:42.537Z,1.44
2022-11-16T02:39:16.943Z,1.36
2022-11-16T02:41:49.465Z,1.26
2022-11-16T02:47:27.562Z,0.89
2022-11-16T02:50:09.689Z,0.81
2022-11-16T02:52:46.907Z,0.80
2022-11-16T02:55:14.726Z,0.45
2022-11-16T02:58:01.371Z,0.82
2022-11-16T03:00:47.080Z,0.94
2022-11-16T03:03:19.690Z,0.84
2022-11-16T03:05:58.614Z,0.91
2022-11-16T03:08:33.159Z,0.94
2022-11-16T03:11:30.598Z,1.04
2022-11-16T03:14:15.048Z,1.11
2022-11-16T03:16:49.447Z,1.17
2022-11-16T03:19:25.990Z,1.17
2022-11-16T03:22:01.620Z,1.11
2022-11-16T03:24:29.985Z,0.91
2022-11-16T03:27:10.406Z,1.06
2022-11-16T03:30:04.923Z,1.09
2022-11-16T03:32:55.657Z,1.18
2022-11-16T03:35:30.981Z,1.08
2022-11-16T03:38:02.111Z,1.08
2022-11-16T03:40:34.877Z,1.07
2022-11-16T03:43:06.962Z,1.12
2022-11-16T03:45:36.598Z,1.13
2022-11-16T03:48:07.663Z,1.15
2022-11-16T03:50:49.428Z,1.09
2022-11-16T03:53:17.885Z,1.16
2022-11-16T03:55:49.571Z,1.12
2022-11-16T03:58:18.845Z,1.08
2022-11-16T04:00:47.046Z,0.86
2022-11-16T04:03:15.171Z,0.90
2022-11-16T04:06:02.542Z,0.88
2022-11-16T04:08:48.436Z,0.95
2022-11-16T04:11:40.152Z,0.90
2022-11-16T04:14:40.073Z,0.93
2022-11-16T04:17:33.985Z,1.05
2022-11-16T04:20:20.841Z,1.09
2022-11-16T04:23:27.705Z,1.10
2022-11-16T04:25:56.180Z,1.09
2022-11-16T04:28:31.711Z,1.05
2022-11-16T04:31:22.758Z,1.05
2022-11-16T04:34:16.386Z,1.03
2022-11-16T04:37:08.024Z,1.11
2022-11-16T04:39:36.181Z,1.11
2022-11-16T04:42:26.678Z,1.17
2022-11-16T04:45:18.389Z,1.13
2022-11-16T04:47:51.594Z,1.26
2022-11-16T04:50:21.839Z,1.23
2022-11-16T04:52:52.777Z,1.35
2022-11-16T04:55:21.479Z,1.36
2022-11-16T04:57:51.033Z,1.33
2022-11-16T05:00:19.907Z,1.15
2022-11-16T05:02:48.301Z,1.27
2022-11-16T05:05:17.960Z,1.37
2022-11-16T05:07:49.028Z,1.46
2022-11-16T05:10:23.334Z,1.42
2022-11-16T05:12:53.117Z,1.51
2022-11-16T05:15:20.806Z,1.48
2022-11-16T05:17:49.499Z,1.29
2022-11-16T05:20:39.338Z,1.39
2022-11-16T05:23:29.115Z,1.26
2022-11-16T05:26:00.322Z,1.39
2022-11-16T05:28:29.977Z,1.51
2022-11-16T05:30:58.696Z,1.57
2022-11-16T05:33:29.218Z,1.62
2022-11-16T05:35:57.270Z,1.68
2022-11-16T05:38:26.055Z,1.71
2022-11-16T05:41:00.370Z,1.84
2022-11-16T05:43:32.001Z,1.63
2022-11-16T05:46:08.731Z,1.54
2022-11-16T05:48:38.621Z,1.56
2022-11-16T05:51:07.557Z,1.68
2022-11-16T05:53:36.866Z,1.72
2022-11-16T05:56:07.834Z,1.41
2022-11-16T05:58:40.388Z,1.51
2022-11-16T06:01:09.284Z,1.42
2022-11-16T06:03:39.038Z,1.47
2022-11-16T06:06:09.819Z,1.49
2022-11-16T06:08:38.559Z,1.50
2022-11-16T06:11:12.194Z,1.51
2022-11-16T06:13:40.863Z,1.56
2022-11-16T06:16:09.241Z,1.52
2022-11-16T06:18:43.541Z,1.58
2022-11-16T06:21:12.849Z,1.70
2022-11-16T06:23:42.842Z,1.69
2022-11-16T06:28:59.633Z,1.71
2022-11-16T06:31:29.630Z,1.39
2022-11-16T06:34:00.486Z,1.60
2022-11-16T06:36:30.002Z,1.81
2022-11-16T06:39:02.515Z,1.77
2022-11-16T06:41:41.335Z,1.93
2022-11-16T06:44:16.517Z,2.13
2022-11-16T06:46:57.144Z,2.24
2022-11-16T06:49:31.085Z,2.46
2022-11-16T06:52:04.376Z,2.45
2022-11-16T06:54:41.850Z,2.37
2022-11-16T06:57:10.039Z,2.33
2022-11-16T06:59:45.042Z,2.30
2022-11-16T07:02:13.865Z,2.44
2022-11-16T07:04:43.095Z,2.35
2022-11-16T07:07:13.586Z,2.41
2022-11-16T07:09:41.864Z,2.31
2022-11-16T07:12:10.890Z,2.36
2022-11-16T07:14:45.860Z,2.41
2022-11-16T07:17:18.827Z,2.74
2022-11-16T07:19:51.354Z,2.46
2022-11-16T07:22:29.399Z,2.85
2022-11-16T07:24:59.775Z,3.05
2022-11-16T07:27:28.270Z,3.25
2022-11-16T07:29:58.071Z,3.27
2022-11-16T07:32:51.083Z,3.34
2022-11-16T07:35:27.794Z,3.50
2022-11-16T07:37:56.368Z,3.39
2022-11-16T07:40:27.585Z,3.58
2022-11-16T07:42:59.112Z,3.55
2022-11-16T07:49:07.043Z,3.50
2022-11-16T07:52:04.288Z,3.41
2022-11-16T07:54:40.855Z,3.47
2022-11-16T07:57:09.399Z,3.47
2022-11-16T07:59:37.592Z,3.50
2022-11-16T08:02:06.145Z,3.53
2022-11-16T08:04:35.063Z,3.61
2022-11-16T08:07:04.022Z,3.62
2022-11-16T08:09:39.738Z,3.77
2022-11-16T08:12:13.476Z,3.77
2022-11-16T08:14:41.722Z,3.91
2022-11-16T08:19:56.990Z,4.08
2022-11-16T08:22:25.092Z,4.11
2022-11-16T08:24:54.642Z,4.23
2022-11-16T08:27:26.154Z,4.27
2022-11-16T08:30:00.628Z,4.35
2022-11-16T08:32:31.897Z,4.24
2022-11-16T08:35:40.172Z,4.24
2022-11-16T08:38:08.437Z,4.34
2022-11-16T08:40:37.741Z,4.26
2022-11-16T08:43:06.189Z,4.29
2022-11-16T08:45:34.515Z,4.33
2022-11-16T08:48:04.341Z,4.45
2022-11-16T08:53:21.410Z,4.53
2022-11-16T08:55:49.216Z,4.65
2022-11-16T08:58:17.377Z,4.63
2022-11-16T09:00:45.606Z,4.69
2022-11-16T09:03:13.656Z,4.66
2022-11-16T09:05:43.346Z,4.76
2022-11-16T09:08:12.031Z,4.65
2022-11-16T09:10:42.096Z,4.88
2022-11-16T09:13:10.683Z,4.69
2022-11-16T09:15:42.583Z,4.92
2022-11-16T09:18:10.778Z,5.16
2022-11-16T09:20:44.425Z,5.36
2022-11-16T09:23:14.727Z,5.59
2022-11-16T09:25:49.236Z,5.61
2022-11-16T09:28:19.974Z,5.59
2022-11-16T09:30:51.283Z,5.48
2022-11-16T09:33:20.089Z,5.55
2022-11-16T09:35:49.613Z,5.56
2022-11-16T09:38:27.005Z,5.40
2022-11-16T09:41:54.286Z,5.53
2022-11-16T09:44:58.620Z,5.80
2022-11-16T09:47:51.843Z,5.91
2022-11-16T09:50:59.819Z,6.12
2022-11-16T09:53:46.977Z,6.00
2022-11-16T09:56:46.500Z,6.27
2022-11-16T09:59:25.126Z,6.39
2022-11-16T10:02:10.490Z,6.33
2022-11-16T10:04:58.253Z,6.25
2022-11-16T10:07:51.017Z,6.16
2022-11-16T10:11:03.445Z,6.22
2022-11-16T10:14:07.521Z,6.24
2022-11-16T10:17:07.959Z,6.33
2022-11-16T10:19:59.250Z,5.99
2022-11-16T10:23:10.744Z,6.08
2022-11-16T10:25:45.668Z,5.98
2022-11-16T10:28:25.371Z,5.77
2022-11-16T10:31:25.292Z,5.79
2022-11-16T10:34:11.649Z,5.84
2022-11-16T10:36:42.444Z,5.95
2022-11-16T10:39:18.725Z,6.00
2022-11-16T10:41:54.289Z,6.11
2022-11-16T10:44:43.193Z,6.19
2022-11-16T10:47:40.738Z,6.28
2022-11-16T10:51:04.380Z,6.47
2022-11-16T10:53:39.832Z,6.50
2022-11-16T10:56:17.585Z,6.52
2022-11-16T10:58:57.802Z,6.53
2022-11-16T11:01:52.110Z,6.59
2022-11-16T11:04:28.670Z,6.62
2022-11-16T11:07:22.668Z,6.57
2022-11-16T11:09:54.094Z,6.47
2022-11-16T11:12:39.656Z,6.36
2022-11-16T11:18:21.337Z,6.33
2022-11-16T11:21:07.513Z,6.45
2022-11-16T11:23:48.307Z,6.43
2022-11-16T11:26:36.138Z,6.37
2022-11-16T11:29:30.138Z,6.29
2022-11-16T11:32:24.134Z,6.17
2022-11-16T11:34:54.958Z,6.07
2022-11-16T11:37:33.404Z,5.93
2022-11-16T11:40:36.158Z,5.89
2022-11-16T11:43:07.505Z,5.99
2022-11-16T11:45:47.130Z,6.10
2022-11-16T11:48:19.760Z,6.07
2022-11-16T11:51:01.341Z,5.99
2022-11-16T11:53:59.823Z,6.03
2022-11-16T11:56:30.514Z,6.13
2022-11-16T11:58:58.676Z,6.08
2022-11-16T12:01:32.233Z,6.12
2022-11-16T12:04:09.010Z,6.07
2022-11-16T12:06:42.607Z,6.07
2022-11-16T12:09:36.962Z,6.03
2022-11-16T12:12:46.074Z,6.19
2022-11-16T12:15:34.284Z,6.14
2022-11-16T12:18:11.071Z,6.16
2022-11-16T12:20:58.005Z,6.13
2022-11-16T12:23:32.891Z,5.96
2022-11-16T12:26:19.709Z,6.01
2022-11-16T12:29:03.988Z,5.75
2022-11-16T12:32:04.416Z,5.85
2022-11-16T12:34:58.292Z,5.88
2022-11-16T12:37:47.369Z,5.90
2022-11-16T12:43:38.650Z,6.05
2022-11-16T12:46:46.213Z,6.06
2022-11-16T12:49:26.877Z,6.04
2022-11-16T12:55:29.838Z,6.09
2022-11-16T12:58:03.337Z,6.12
2022-11-16T13:00:57.224Z,6.09
2022-11-16T13:03:32.291Z,5.90
2022-11-16T13:06:03.988Z,5.94
2022-11-16T13:08:49.542Z,5.94
2022-11-16T13:11:41.072Z,5.93
2022-11-16T13:14:18.772Z,5.89
2022-11-16T13:16:47.915Z,5.78
2022-11-16T13:19:17.559Z,5.74
2022-11-16T13:22:03.523Z,5.86
2022-11-16T13:24:35.678Z,5.86
2022-11-16T13:27:18.514Z,5.79
2022-11-16T13:30:02.529Z,5.72
2022-11-16T13:32:42.673Z,5.52
2022-11-16T13:35:19.049Z,5.54
2022-11-16T13:37:52.249Z,5.60
2022-11-16T13:40:26.618Z,5.46
2022-11-16T13:43:00.495Z,5.56
2022-11-16T13:45:51.281Z,5.53
2022-11-16T13:48:28.806Z,5.54
2022-11-16T13:50:59.113Z,5.42
2022-11-16T13:56:28.563Z,5.38
2022-11-16T13:58:58.866Z,5.34
2022-11-16T14:02:06.046Z,5.26
2022-11-16T14:04:36.632Z,5.37
2022-11-16T14:07:04.228Z,5.44
2022-11-16T14:09:46.262Z,5.18
2022-11-16T14:12:38.699Z,5.26
2022-11-16T14:15:25.666Z,5.30
2022-11-16T14:18:22.187Z,4.99
2022-11-16T14:21:09.297Z,5.17
2022-11-16T14:23:48.772Z,5.29
2022-11-16T14:26:37.726Z,5.30
2022-11-16T14:29:24.301Z,5.22
2022-11-16T14:31:57.333Z,5.24
2022-11-16T14:34:28.029Z,5.35
2022-11-16T14:36:55.876Z,5.14
2022-11-16T14:39:37.516Z,5.22
2022-11-16T14:42:38.224Z,5.25
2022-11-16T14:45:28.592Z,5.29
2022-11-16T14:48:05.015Z,5.03
2022-11-16T14:50:38.151Z,5.16
2022-11-16T14:53:14.151Z,5.35
2022-11-16T14:55:46.492Z,5.40
2022-11-16T14:58:20.643Z,5.56
2022-11-16T15:01:00.998Z,5.68
2022-11-16T15:03:53.825Z,5.54
2022-11-16T15:06:22.355Z,5.65
2022-11-16T15:08:54.884Z,5.66
2022-11-16T15:11:49.577Z,5.67
2022-11-16T15:14:27.114Z,5.78
2022-11-16T15:16:56.892Z,5.78
2022-11-16T15:19:25.059Z,5.83
2022-11-16T15:21:58.681Z,5.61
2022-11-16T15:24:30.975Z,5.68
2022-11-16T15:27:12.478Z,5.78
2022-11-16T15:29:40.196Z,5.84
2022-11-16T15:32:13.405Z,5.76
2022-11-16T15:34:41.100Z,5.68
2022-11-16T15:37:12.326Z,5.65
2022-11-16T15:39:40.268Z,5.72
2022-11-16T15:42:15.056Z,5.77
2022-11-16T15:44:43.840Z,5.85
2022-11-16T15:47:13.850Z,5.90
2022-11-16T15:49:43.809Z,5.84
2022-11-16T15:52:11.611Z,5.83
2022-11-16T15:54:57.453Z,5.93
2022-11-16T16:00:22.960Z,6.00
2022-11-16T16:02:52.381Z,6.03
2022-11-16T16:05:32.430Z,5.83
2022-11-16T16:08:00.251Z,5.90
2022-11-16T16:10:27.744Z,5.93
2022-11-16T16:13:00.549Z,5.49
2022-11-16T16:15:34.346Z,5.80
2022-11-16T16:18:04.184Z,5.77
2022-11-16T16:20:33.268Z,5.88
2022-11-16T16:23:13.681Z,5.76
2022-11-16T16:25:44.754Z,5.78
2022-11-16T16:28:15.018Z,5.71
2022-11-16T16:30:43.442Z,5.72
2022-11-16T16:33:19.759Z,5.87
2022-11-16T16:35:50.034Z,5.85
2022-11-16T16:38:17.501Z,5.94
2022-11-16T16:40:45.024Z,5.72
2022-11-16T16:43:12.537Z,5.86
2022-11-16T16:45:43.656Z,5.85
2022-11-16T16:48:14.202Z,5.90
2022-11-16T16:50:41.970Z,5.89
2022-11-16T16:53:13.056Z,5.79
2022-11-16T16:55:41.495Z,5.78
2022-11-16T16:58:12.455Z,5.82
2022-11-16T17:00:41.118Z,5.81
2022-11-16T17:03:09.045Z,5.90
2022-11-16T17:05:36.815Z,5.90
2022-11-16T17:08:04.512Z,5.97
2022-11-16T17:10:32.104Z,6.01
2022-11-16T17:13:02.845Z,5.96
2022-11-16T17:15:30.614Z,5.93
2022-11-16T17:17:59.199Z,5.88
2022-11-16T17:20:26.946Z,5.88
2022-11-16T17:22:54.418Z,5.90
2022-11-16T17:25:22.089Z,5.94
2022-11-16T17:27:49.571Z,5.96
2022-11-16T17:30:17.332Z,5.90
2022-11-16T17:32:44.792Z,5.89
2022-11-16T17:35:13.304Z,5.91
2022-11-16T17:37:40.685Z,5.67
2022-11-16T17:40:17.148Z,5.75
2022-11-16T17:42:44.833Z,5.74
2022-11-16T17:45:12.317Z,5.74
2022-11-16T17:47:39.985Z,5.81
2022-11-16T17:50:09.386Z,5.86
2022-11-16T17:52:36.970Z,5.83
2022-11-16T17:55:04.675Z,5.86
2022-11-16T17:57:32.360Z,5.91
2022-11-16T17:59:59.744Z,5.83
2022-11-16T18:02:27.366Z,5.86
2022-11-16T18:04:55.166Z,5.87
2022-11-16T18:07:23.414Z,5.83
2022-11-16T18:09:50.817Z,5.89
2022-11-16T18:12:18.783Z,5.79
2022-11-16T18:15:06.489Z,5.76
2022-11-16T18:17:35.219Z,5.87
2022-11-16T18:20:04.999Z,5.94
2022-11-16T18:22:32.460Z,5.94
2022-11-16T18:25:15.717Z,5.94
2022-11-16T18:30:29.576Z,5.87
2022-11-16T18:32:57.028Z,5.80
2022-11-16T18:35:24.477Z,5.79
2022-11-16T18:37:52.079Z,5.77
2022-11-16T18:40:19.648Z,5.79
2022-11-16T18:42:47.659Z,5.78
2022-11-16T18:45:15.203Z,5.83
2022-11-16T18:47:42.574Z,5.88
2022-11-16T18:50:19.061Z,5.80
2022-11-16T18:52:49.122Z,5.88
2022-11-16T18:55:16.460Z,5.90
2022-11-16T18:57:44.214Z,5.89
2022-11-16T19:00:12.466Z,5.81
2022-11-16T19:02:39.924Z,5.87
2022-11-16T19:05:07.911Z,5.87
2022-11-16T19:07:36.062Z,5.86
2022-11-16T19:10:03.622Z,5.71
2022-11-16T19:12:32.562Z,5.72
2022-11-16T19:15:00.019Z,5.69
2022-11-16T19:17:27.746Z,5.74
2022-11-16T19:19:55.161Z,5.83
2022-11-16T19:22:22.924Z,5.83
2022-11-16T19:24:50.341Z,5.78
2022-11-16T19:27:17.885Z,5.76
2022-11-16T19:29:45.353Z,5.76
2022-11-16T19:32:12.840Z,5.73
2022-11-16T19:34:40.187Z,5.75
2022-11-16T19:37:07.727Z,5.72
2022-11-16T19:39:35.194Z,5.72
2022-11-16T19:42:02.654Z,5.69
2022-11-16T19:44:30.085Z,5.72
2022-11-16T19:46:57.564Z,5.70
2022-11-16T19:52:06.553Z,5.70
2022-11-16T19:57:20.902Z,5.71
2022-11-16T19:59:48.268Z,5.72
2022-11-16T20:02:15.723Z,5.77
2022-11-16T20:07:38.296Z,5.66
2022-11-16T20:10:19.514Z,5.68
2022-11-16T20:12:46.840Z,5.67
2022-11-16T20:15:14.269Z,5.68
2022-11-16T20:17:41.743Z,5.72
2022-11-16T20:20:09.747Z,5.71
2022-11-16T20:22:37.271Z,5.72
2022-11-16T20:25:05.042Z,5.72
2022-11-16T20:27:32.452Z,5.66
2022-11-16T20:30:02.655Z,5.72
2022-11-16T20:32:32.648Z,5.75
2022-11-16T20:37:53.428Z,5.75
2022-11-16T20:40:20.823Z,5.71
2022-11-16T20:42:48.432Z,5.71
2022-11-16T20:45:15.869Z,5.74
2022-11-16T20:47:43.251Z,5.71
2022-11-16T20:50:10.692Z,5.75
2022-11-16T20:52:42.449Z,5.74
2022-11-16T20:55:11.440Z,5.74
2022-11-16T20:57:39.554Z,5.71
2022-11-16T21:00:07.577Z,5.56
2022-11-16T21:02:35.029Z,5.65
2022-11-16T21:05:02.535Z,5.65
2022-11-16T21:07:31.151Z,5.70
2022-11-16T21:10:16.877Z,5.73
2022-11-16T21:16:01.014Z,5.61
2022-11-16T21:18:30.847Z,5.56
2022-11-16T21:21:02.257Z,5.38
2022-11-16T21:23:32.108Z,5.31
2022-11-16T21:26:08.400Z,5.17
2022-11-16T21:28:36.010Z,5.12
2022-11-16T21:31:10.160Z,5.16
2022-11-16T21:33:38.038Z,5.30
2022-11-16T21:41:35.555Z,5.29
2022-11-16T21:44:03.207Z,5.36
2022-11-16T21:46:30.604Z,5.30
2022-11-16T21:48:58.314Z,5.32
2022-11-16T21:51:27.371Z,5.39
2022-11-16T21:53:55.719Z,5.43
2022-11-16T21:56:25.486Z,5.35
2022-11-16T21:58:54.230Z,5.08
2022-11-16T22:01:22.974Z,5.18
2022-11-16T22:04:10.862Z,5.18
2022-11-16T22:07:01.319Z,5.20
2022-11-16T22:09:28.822Z,4.87
2022-11-16T22:11:59.797Z,4.80
2022-11-16T22:14:30.307Z,5.08
2022-11-16T22:16:57.742Z,4.71
2022-11-16T22:19:25.186Z,4.69
2022-11-16T22:21:52.627Z,4.96
2022-11-16T22:24:20.545Z,5.04
2022-11-16T22:26:48.061Z,5.00
2022-11-16T22:29:15.514Z,5.11
2022-11-16T22:31:43.010Z,5.18
2022-11-16T22:34:10.550Z,5.21
2022-11-16T22:36:37.893Z,4.99
2022-11-16T22:39:05.531Z,4.98
2022-11-16T22:41:32.897Z,5.05
2022-11-16T22:44:00.452Z,5.05
2022-11-16T22:46:28.036Z,4.67
2022-11-16T22:48:55.529Z,4.66
2022-11-16T22:51:28.500Z,4.73
2022-11-16T22:53:58.338Z,4.72
2022-11-16T22:59:11.201Z,4.80
2022-11-16T23:01:38.710Z,4.80
2022-11-16T23:04:06.280Z,4.78
2022-11-16T23:06:33.781Z,4.78
2022-11-16T23:09:01.487Z,4.70
2022-11-16T23:11:47.375Z,4.66
2022-11-16T23:14:35.470Z,4.75
2022-11-16T23:17:04.137Z,4.78
2022-11-16T23:19:49.983Z,4.86
2022-11-16T23:22:38.524Z,4.77
2022-11-16T23:25:26.660Z,4.91
2022-11-16T23:28:16.703Z,4.85
2022-11-16T23:30:44.247Z,4.85
2022-11-16T23:33:11.993Z,4.78
2022-11-16T23:35:39.695Z,4.66
2022-11-16T23:38:07.910Z,4.68
2022-11-16T23:40:37.420Z,4.69
2022-11-16T23:43:24.714Z,4.56
2022-11-16T23:45:52.365Z,4.62
2022-11-16T23:48:19.769Z,4.64
2022-11-16T23:50:47.429Z,4.69
2022-11-16T23:53:14.997Z,4.61
2022-11-16T23:55:42.580Z,4.62
2022-11-16T23:58:14.611Z,4.62
